createdAt,value
2023-05-06T00:01:16.024Z,68.52
2023-05-06T00:03:48.827Z,69.17
2023-05-06T00:06:19.034Z,69.03
2023-05-06T00:08:49.610Z,69.34
2023-05-06T00:11:19.651Z,69.42
2023-05-06T00:13:49.730Z,69.27
2023-05-06T00:16:21.868Z,69.63
2023-05-06T00:18:54.419Z,69.62
2023-05-06T00:21:27.363Z,69.46
2023-05-06T00:23:57.510Z,69.41
2023-05-06T00:26:27.512Z,69.53
2023-05-06T00:28:57.593Z,69.35
2023-05-06T00:31:27.684Z,69.57
2023-05-06T00:34:00.631Z,69.42
2023-05-06T00:36:30.619Z,69.37
2023-05-06T00:39:00.964Z,69.35
2023-05-06T00:41:36.814Z,69.30
2023-05-06T00:44:06.993Z,69.18
2023-05-06T00:46:37.558Z,68.97
2023-05-06T00:49:10.129Z,68.68
2023-05-06T00:51:40.422Z,68.81
2023-05-06T00:54:13.294Z,69.05
2023-05-06T00:56:47.058Z,68.90
2023-05-06T00:59:17.635Z,68.98
2023-05-06T01:01:49.628Z,69.05
2023-05-06T01:04:22.734Z,69.18
2023-05-06T01:07:04.485Z,68.81
2023-05-06T01:09:50.406Z,69.11
2023-05-06T01:12:27.538Z,69.16
2023-05-06T01:15:08.834Z,69.56
2023-05-06T01:17:46.756Z,69.70
2023-05-06T01:20:21.583Z,69.43
2023-05-06T01:22:53.131Z,69.04
2023-05-06T01:25:30.348Z,69.03
2023-05-06T01:28:11.955Z,69.53
2023-05-06T01:31:01.314Z,69.39
2023-05-06T01:33:40.033Z,69.23
2023-05-06T01:36:18.880Z,69.24
2023-05-06T01:38:55.654Z,69.33
2023-05-06T01:41:29.823Z,69.29
2023-05-06T01:44:00.649Z,72.31
2023-05-06T01:46:33.420Z,70.58
2023-05-06T01:49:08.300Z,70.93
2023-05-06T01:51:38.397Z,71.05
2023-05-06T01:54:09.499Z,71.02
2023-05-06T01:56:46.723Z,71.21
2023-05-06T01:59:18.312Z,71.01
2023-05-06T02:01:48.414Z,71.11
2023-05-06T02:04:18.545Z,71.15
2023-05-06T02:06:48.768Z,71.32
2023-05-06T02:09:20.785Z,71.26
2023-05-06T02:11:59.714Z,70.99
2023-05-06T02:14:32.038Z,71.10
2023-05-06T02:17:06.597Z,71.01
2023-05-06T02:19:39.564Z,71.35
2023-05-06T02:22:12.101Z,71.03
2023-05-06T02:24:53.060Z,70.96
2023-05-06T02:27:25.894Z,71.01
2023-05-06T02:29:59.696Z,70.40
2023-05-06T02:32:32.541Z,70.62
2023-05-06T02:35:03.210Z,70.56
2023-05-06T02:37:33.464Z,70.40
2023-05-06T02:40:07.877Z,70.17
2023-05-06T02:42:40.547Z,70.36
2023-05-06T02:45:12.205Z,69.98
2023-05-06T02:47:42.518Z,69.81
2023-05-06T02:50:14.175Z,69.50
2023-05-06T02:52:46.834Z,69.24
2023-05-06T02:55:21.406Z,69.16
2023-05-06T02:57:53.960Z,69.30
2023-05-06T03:00:24.287Z,69.10
2023-05-06T03:02:55.132Z,69.11
2023-05-06T03:05:26.842Z,69.18
2023-05-06T03:07:57.193Z,69.53
2023-05-06T03:10:33.052Z,69.58
2023-05-06T03:13:06.755Z,69.95
2023-05-06T03:15:36.890Z,69.95
2023-05-06T03:18:08.870Z,70.13
2023-05-06T03:20:46.531Z,70.12
2023-05-06T03:23:16.531Z,70.21
2023-05-06T03:25:46.849Z,70.05
2023-05-06T03:28:21.306Z,70.05
2023-05-06T03:30:52.771Z,70.18
2023-05-06T03:33:30.108Z,69.65
2023-05-06T03:36:00.285Z,69.61
2023-05-06T03:38:33.008Z,69.39
2023-05-06T03:41:06.194Z,69.18
2023-05-06T03:43:45.964Z,68.97
2023-05-06T03:46:17.121Z,68.80
2023-05-06T03:48:47.722Z,69.00
2023-05-06T03:51:20.927Z,68.86
2023-05-06T03:53:52.987Z,68.73
2023-05-06T03:56:25.685Z,68.92
2023-05-06T03:59:03.863Z,69.07
2023-05-06T04:01:37.807Z,69.29
2023-05-06T04:04:09.507Z,69.35
2023-05-06T04:06:42.094Z,69.52
2023-05-06T04:09:13.302Z,69.60
2023-05-06T04:11:43.756Z,69.66
2023-05-06T04:14:19.577Z,69.88
2023-05-06T04:16:50.035Z,69.63
2023-05-06T04:19:20.214Z,69.54
2023-05-06T04:21:50.788Z,69.55
2023-05-06T04:24:21.812Z,69.79
2023-05-06T04:26:55.782Z,69.79
2023-05-06T04:29:29.545Z,69.72
2023-05-06T04:32:11.894Z,69.97
2023-05-06T04:34:47.511Z,69.90
2023-05-06T04:37:19.179Z,69.92
2023-05-06T04:39:53.159Z,70.33
2023-05-06T04:42:23.536Z,70.46
2023-05-06T04:45:08.367Z,70.04
2023-05-06T04:47:40.626Z,69.85
2023-05-06T04:50:13.816Z,69.85
2023-05-06T04:52:45.213Z,70.57
2023-05-06T04:55:17.880Z,70.51
2023-05-06T04:57:51.822Z,70.27
2023-05-06T05:00:26.614Z,70.52
2023-05-06T05:02:57.160Z,70.33
2023-05-06T05:05:30.112Z,70.17
2023-05-06T05:08:01.040Z,70.10
2023-05-06T05:10:33.557Z,69.66
2023-05-06T05:13:03.833Z,69.36
2023-05-06T05:15:36.750Z,66.20
2023-05-06T05:18:06.963Z,63.95
2023-05-06T05:20:38.026Z,61.88
2023-05-06T05:23:11.915Z,59.75
2023-05-06T05:25:43.616Z,58.01
2023-05-06T05:28:14.074Z,56.28
2023-05-06T05:30:54.516Z,55.74
2023-05-06T05:33:25.172Z,56.10
2023-05-06T05:36:04.918Z,58.85
2023-05-06T05:38:39.029Z,61.60
2023-05-06T05:41:09.394Z,64.31
2023-05-06T05:43:39.812Z,65.87
2023-05-06T05:46:12.615Z,66.64
2023-05-06T05:48:46.940Z,67.14
2023-05-06T05:51:17.370Z,68.38
2023-05-06T05:53:48.188Z,68.48
2023-05-06T05:56:19.754Z,68.97
2023-05-06T05:58:50.878Z,69.06
2023-05-06T06:01:24.620Z,68.96
2023-05-06T06:03:56.177Z,68.93
2023-05-06T06:06:26.558Z,68.88
2023-05-06T06:08:56.696Z,68.55
2023-05-06T06:11:29.415Z,68.43
2023-05-06T06:14:00.211Z,68.43
2023-05-06T06:16:33.189Z,68.40
2023-05-06T06:19:03.434Z,68.49
2023-05-06T06:21:34.046Z,68.34
2023-05-06T06:24:07.182Z,67.98
2023-05-06T06:26:41.345Z,67.39
2023-05-06T06:29:11.533Z,67.48
2023-05-06T06:31:44.282Z,67.85
2023-05-06T06:34:14.445Z,68.21
2023-05-06T06:36:46.001Z,68.08
2023-05-06T06:39:16.588Z,68.04
2023-05-06T06:41:48.812Z,67.98
2023-05-06T06:44:22.034Z,67.64
2023-05-06T06:46:54.544Z,67.33
2023-05-06T06:49:24.922Z,66.70
2023-05-06T06:51:56.901Z,66.41
2023-05-06T06:54:33.641Z,66.42
2023-05-06T06:57:04.165Z,66.53
2023-05-06T06:59:36.732Z,66.43
2023-05-06T07:02:09.889Z,66.49
2023-05-06T07:04:41.134Z,66.30
2023-05-06T07:07:11.221Z,65.85
2023-05-06T07:09:41.788Z,65.47
2023-05-06T07:12:12.357Z,65.37
2023-05-06T07:14:44.906Z,66.07
2023-05-06T07:17:17.614Z,66.80
2023-05-06T07:19:47.757Z,67.31
2023-05-06T07:22:19.619Z,67.54
2023-05-06T07:24:53.350Z,67.40
2023-05-06T07:27:27.553Z,67.51
2023-05-06T07:29:59.914Z,67.49
2023-05-06T07:32:33.120Z,66.72
2023-05-06T07:35:18.204Z,65.99
2023-05-06T07:37:49.112Z,65.57
2023-05-06T07:40:19.381Z,65.73
2023-05-06T07:42:51.792Z,65.15
2023-05-06T07:45:23.620Z,65.97
2023-05-06T07:47:56.702Z,66.82
2023-05-06T07:50:27.151Z,67.47
2023-05-06T07:52:57.595Z,67.69
2023-05-06T07:55:28.123Z,67.42
2023-05-06T07:57:58.422Z,66.47
2023-05-06T08:00:28.543Z,65.54
2023-05-06T08:03:01.425Z,64.83
2023-05-06T08:05:31.867Z,64.92
2023-05-06T08:08:02.009Z,65.13
2023-05-06T08:10:32.522Z,65.55
2023-05-06T08:13:11.848Z,65.32
2023-05-06T08:15:43.287Z,64.48
2023-05-06T08:18:22.324Z,64.13
2023-05-06T08:20:53.249Z,63.48
2023-05-06T08:23:26.406Z,63.64
2023-05-06T08:25:56.665Z,63.96
2023-05-06T08:28:26.738Z,64.15
2023-05-06T08:30:56.755Z,64.85
2023-05-06T08:33:32.904Z,64.75
2023-05-06T08:36:02.953Z,64.67
2023-05-06T08:38:32.991Z,64.60
2023-05-06T08:41:10.864Z,64.16
2023-05-06T08:44:01.484Z,63.64
2023-05-06T08:46:35.045Z,63.50
2023-05-06T08:49:09.865Z,63.60
2023-05-06T08:51:41.346Z,63.26
2023-05-06T08:54:13.136Z,62.95
2023-05-06T08:56:53.393Z,62.45
2023-05-06T08:59:31.119Z,62.56
2023-05-06T09:02:02.648Z,62.99
2023-05-06T09:04:35.350Z,63.25
2023-05-06T09:07:05.544Z,63.83
2023-05-06T09:09:35.616Z,63.28
2023-05-06T09:12:07.247Z,62.72
2023-05-06T09:14:37.317Z,62.98
2023-05-06T09:17:08.374Z,63.63
2023-05-06T09:19:49.439Z,63.88
2023-05-06T09:22:27.160Z,64.93
2023-05-06T09:24:59.349Z,64.70
2023-05-06T09:27:31.747Z,64.51
2023-05-06T09:30:06.866Z,64.37
2023-05-06T09:32:40.484Z,63.84
2023-05-06T09:35:14.527Z,62.78
2023-05-06T09:37:45.075Z,62.14
2023-05-06T09:40:17.013Z,62.79
2023-05-06T09:42:50.658Z,63.15
2023-05-06T09:45:20.691Z,63.34
2023-05-06T09:47:53.975Z,62.99
2023-05-06T09:50:27.986Z,63.18
2023-05-06T09:52:59.925Z,64.00
2023-05-06T09:55:30.946Z,63.40
2023-05-06T09:58:02.401Z,63.66
2023-05-06T10:00:34.303Z,63.66
2023-05-06T10:03:08.874Z,63.01
2023-05-06T10:05:43.846Z,61.98
2023-05-06T10:08:18.762Z,61.57
2023-05-06T10:10:52.337Z,61.40
2023-05-06T10:13:24.828Z,61.64
2023-05-06T10:15:55.779Z,61.97
2023-05-06T10:18:29.431Z,62.26
2023-05-06T10:21:03.524Z,62.28
2023-05-06T10:23:40.513Z,62.33
2023-05-06T10:26:14.600Z,62.67
2023-05-06T10:28:46.928Z,62.41
2023-05-06T10:31:17.161Z,62.23
2023-05-06T10:33:51.684Z,60.92
2023-05-06T10:36:28.823Z,60.30
2023-05-06T10:39:00.949Z,60.27
2023-05-06T10:41:32.033Z,60.96
2023-05-06T10:44:02.102Z,61.42
2023-05-06T10:46:58.930Z,61.58
2023-05-06T10:49:29.500Z,61.74
2023-05-06T10:52:18.162Z,62.03
2023-05-06T10:54:53.228Z,61.69
2023-05-06T10:57:27.216Z,61.57
2023-05-06T10:59:59.932Z,61.45
2023-05-06T11:02:33.498Z,61.19
2023-05-06T11:05:04.962Z,61.01
2023-05-06T11:07:39.695Z,62.25
2023-05-06T11:10:13.809Z,61.72
2023-05-06T11:12:51.722Z,60.70
2023-05-06T11:15:26.935Z,60.53
2023-05-06T11:17:58.425Z,60.34
2023-05-06T11:20:30.908Z,60.25
2023-05-06T11:23:04.613Z,60.38
2023-05-06T11:25:51.784Z,60.86
2023-05-06T11:28:21.831Z,61.14
2023-05-06T11:30:58.523Z,61.20
2023-05-06T11:33:34.623Z,60.42
2023-05-06T11:36:06.989Z,59.74
2023-05-06T11:38:49.835Z,59.74
2023-05-06T11:41:23.618Z,60.02
2023-05-06T11:43:55.346Z,60.78
2023-05-06T11:46:36.008Z,61.01
2023-05-06T11:49:08.813Z,61.57
2023-05-06T11:51:39.219Z,61.25
2023-05-06T11:54:20.507Z,61.12
2023-05-06T11:56:52.853Z,61.13
2023-05-06T11:59:31.138Z,61.25
2023-05-06T12:02:10.878Z,61.68
2023-05-06T12:04:44.652Z,61.44
2023-05-06T12:07:17.601Z,60.64
2023-05-06T12:09:52.484Z,60.03
2023-05-06T12:12:27.630Z,59.81
2023-05-06T12:14:57.912Z,60.30
2023-05-06T12:17:28.134Z,61.02
2023-05-06T12:19:58.986Z,61.72
2023-05-06T12:22:31.553Z,62.66
2023-05-06T12:25:31.133Z,62.07
2023-05-06T12:28:04.353Z,62.53
2023-05-06T12:30:34.883Z,62.16
2023-05-06T12:33:15.590Z,61.74
2023-05-06T12:35:45.669Z,62.08
2023-05-06T12:38:17.194Z,61.90
2023-05-06T12:40:57.134Z,61.74
2023-05-06T12:43:32.622Z,61.16
2023-05-06T12:46:10.089Z,60.58
2023-05-06T12:48:42.625Z,60.26
2023-05-06T12:51:22.296Z,59.87
2023-05-06T12:53:52.489Z,60.62
2023-05-06T12:56:34.652Z,60.04
2023-05-06T12:59:09.724Z,59.56
2023-05-06T13:01:42.403Z,60.12
2023-05-06T13:04:15.471Z,60.79
2023-05-06T13:06:47.176Z,60.43
2023-05-06T13:09:21.463Z,59.62
2023-05-06T13:11:57.968Z,59.56
2023-05-06T13:14:46.361Z,60.00
2023-05-06T13:17:16.738Z,61.21
2023-05-06T13:19:47.203Z,60.79
2023-05-06T13:22:17.296Z,60.50
2023-05-06T13:24:47.359Z,59.98
2023-05-06T13:27:22.042Z,59.54
2023-05-06T13:29:54.108Z,59.63
2023-05-06T13:32:24.273Z,60.14
2023-05-06T13:34:56.556Z,60.09
2023-05-06T13:37:27.395Z,59.15
2023-05-06T13:39:57.857Z,58.78
2023-05-06T13:42:30.582Z,58.53
2023-05-06T13:45:01.134Z,58.25
2023-05-06T13:47:31.448Z,58.04
2023-05-06T13:50:03.823Z,57.21
2023-05-06T13:52:33.881Z,57.04
2023-05-06T13:55:04.193Z,57.99
2023-05-06T13:57:36.818Z,58.28
2023-05-06T14:00:11.087Z,58.53
2023-05-06T14:02:43.430Z,59.24
2023-05-06T14:05:15.886Z,59.62
2023-05-06T14:07:46.039Z,60.21
2023-05-06T14:10:17.072Z,60.10
2023-05-06T14:12:50.061Z,59.71
2023-05-06T14:15:21.292Z,59.79
2023-05-06T14:17:51.378Z,59.83
2023-05-06T14:20:23.278Z,59.56
2023-05-06T14:22:53.360Z,58.83
2023-05-06T14:25:27.030Z,59.48
2023-05-06T14:28:00.293Z,59.53
2023-05-06T14:30:31.109Z,59.71
2023-05-06T14:33:01.332Z,59.95
2023-05-06T14:35:32.187Z,59.28
2023-05-06T14:38:02.259Z,58.67
2023-05-06T14:40:36.140Z,57.66
2023-05-06T14:43:09.704Z,54.42
2023-05-06T14:45:42.372Z,58.20
2023-05-06T14:48:16.210Z,57.86
2023-05-06T14:50:48.293Z,57.48
2023-05-06T14:53:20.633Z,57.87
2023-05-06T14:55:53.099Z,57.99
2023-05-06T14:58:28.337Z,57.37
2023-05-06T15:00:58.343Z,57.49
2023-05-06T15:03:29.191Z,57.69
2023-05-06T15:06:09.933Z,58.61
2023-05-06T15:08:40.132Z,57.62
2023-05-06T15:11:12.598Z,58.05
2023-05-06T15:13:48.836Z,57.71
2023-05-06T15:16:18.801Z,59.08
2023-05-06T15:18:49.219Z,59.23
2023-05-06T15:21:22.207Z,59.10
2023-05-06T15:23:52.658Z,59.13
2023-05-06T15:26:24.271Z,59.32
2023-05-06T15:28:57.218Z,59.15
2023-05-06T15:31:27.534Z,59.03
2023-05-06T15:33:59.585Z,59.33
2023-05-06T15:36:31.306Z,59.52
2023-05-06T15:39:02.829Z,59.31
2023-05-06T15:41:35.109Z,58.94
2023-05-06T15:44:11.414Z,59.30
2023-05-06T15:46:42.222Z,59.15
2023-05-06T15:52:01.304Z,59.37
2023-05-06T15:54:32.185Z,59.13
2023-05-06T15:57:07.095Z,59.00
2023-05-06T15:59:46.301Z,59.02
2023-05-06T16:04:51.711Z,58.98
2023-05-06T16:07:22.191Z,58.48
2023-05-06T16:09:52.941Z,58.45
2023-05-06T16:12:23.139Z,57.54
2023-05-06T16:15:00.598Z,57.57
2023-05-06T16:17:30.783Z,58.04
2023-05-06T16:20:00.978Z,57.56
2023-05-06T16:22:30.976Z,57.81
2023-05-06T16:25:01.045Z,57.83
2023-05-06T16:27:31.239Z,58.31
2023-05-06T16:30:04.006Z,58.41
2023-05-06T16:32:35.369Z,58.16
2023-05-06T16:35:14.456Z,58.64
2023-05-06T16:37:46.511Z,58.88
2023-05-06T16:40:26.467Z,59.37
2023-05-06T16:42:56.635Z,59.07
2023-05-06T16:45:31.035Z,59.25
2023-05-06T16:48:01.313Z,59.24
2023-05-06T16:50:32.327Z,59.49
2023-05-06T16:53:02.445Z,59.65
2023-05-06T16:55:32.627Z,59.42
2023-05-06T16:58:03.874Z,59.28
2023-05-06T17:00:36.532Z,59.93
2023-05-06T17:03:07.329Z,60.20
2023-05-06T17:05:37.455Z,60.56
2023-05-06T17:08:12.063Z,60.81
2023-05-06T17:10:43.575Z,60.66
2023-05-06T17:13:28.190Z,61.28
2023-05-06T17:16:01.063Z,61.44
2023-05-06T17:18:53.846Z,61.79
2023-05-06T17:24:08.120Z,62.19
2023-05-06T17:26:41.923Z,62.39
2023-05-06T17:29:15.368Z,62.86
2023-05-06T17:31:48.100Z,63.12
2023-05-06T17:34:18.560Z,63.66
2023-05-06T17:36:48.567Z,63.61
2023-05-06T17:39:20.656Z,63.81
2023-05-06T17:41:50.806Z,64.32
2023-05-06T17:44:20.773Z,64.40
2023-05-06T17:46:56.382Z,64.81
2023-05-06T17:49:27.333Z,64.94
2023-05-06T17:51:59.455Z,65.17
2023-05-06T17:54:32.626Z,65.42
2023-05-06T17:57:03.520Z,65.44
2023-05-06T17:59:33.580Z,65.50
2023-05-06T18:02:14.156Z,65.47
2023-05-06T18:04:48.226Z,65.92
2023-05-06T18:07:18.302Z,69.88
2023-05-06T18:09:52.124Z,66.27
2023-05-06T18:12:22.772Z,66.25
2023-05-06T18:14:53.452Z,66.29
2023-05-06T18:17:26.343Z,66.64
2023-05-06T18:19:56.442Z,66.58
2023-05-06T18:22:26.872Z,66.57
2023-05-06T18:24:56.919Z,67.06
2023-05-06T18:27:29.798Z,66.94
2023-05-06T18:30:00.036Z,66.98
2023-05-06T18:32:32.863Z,67.00
2023-05-06T18:35:05.591Z,66.59
2023-05-06T18:37:45.785Z,67.25
2023-05-06T18:40:17.998Z,67.47
2023-05-06T18:42:51.462Z,67.08
2023-05-06T18:45:24.619Z,66.71
2023-05-06T18:47:59.079Z,67.32
2023-05-06T18:50:31.483Z,67.38
2023-05-06T18:53:01.505Z,67.03
2023-05-06T18:55:40.240Z,66.61
2023-05-06T18:58:12.629Z,66.42
2023-05-06T19:00:42.663Z,66.43
2023-05-06T19:03:27.672Z,66.40
2023-05-06T19:05:57.826Z,66.94
2023-05-06T19:08:29.804Z,67.38
2023-05-06T19:11:02.292Z,67.36
2023-05-06T19:13:32.460Z,68.54
2023-05-06T19:16:02.512Z,68.44
2023-05-06T19:18:38.048Z,69.03
2023-05-06T19:21:12.119Z,68.80
2023-05-06T19:23:42.336Z,68.86
2023-05-06T19:26:15.374Z,68.73
2023-05-06T19:28:45.883Z,68.60
2023-05-06T19:31:16.544Z,68.42
2023-05-06T19:33:49.301Z,69.49
2023-05-06T19:36:19.512Z,69.32
2023-05-06T19:38:50.651Z,68.74
2023-05-06T19:41:21.441Z,68.87
2023-05-06T19:43:55.430Z,68.64
2023-05-06T19:46:27.006Z,67.98
2023-05-06T19:49:01.043Z,67.87
2023-05-06T19:51:31.450Z,68.55
2023-05-06T19:54:01.552Z,69.10
2023-05-06T19:56:34.479Z,68.59
2023-05-06T19:59:04.460Z,69.30
2023-05-06T20:01:34.451Z,69.54
2023-05-06T20:04:07.563Z,69.59
2023-05-06T20:06:37.686Z,69.01
2023-05-06T20:09:10.478Z,68.38
2023-05-06T20:11:40.577Z,68.30
2023-05-06T20:14:13.791Z,68.15
2023-05-06T20:16:44.601Z,67.90
2023-05-06T20:19:17.754Z,67.89
2023-05-06T20:21:48.033Z,68.50
2023-05-06T20:24:18.413Z,69.10
2023-05-06T20:26:50.908Z,69.39
2023-05-06T20:29:21.578Z,69.33
2023-05-06T20:31:54.372Z,70.18
2023-05-06T20:34:27.476Z,69.93
2023-05-06T20:36:57.496Z,69.52
2023-05-06T20:39:30.000Z,69.31
2023-05-06T20:42:00.183Z,69.25
2023-05-06T20:44:31.094Z,69.61
2023-05-06T20:47:02.268Z,69.17
2023-05-06T20:49:42.443Z,69.03
2023-05-06T20:52:14.827Z,68.78
2023-05-06T20:54:47.285Z,68.67
2023-05-06T20:57:19.238Z,68.86
2023-05-06T20:59:49.732Z,69.28
2023-05-06T21:02:22.747Z,69.01
2023-05-06T21:04:57.507Z,69.87
2023-05-06T21:07:31.076Z,69.32
2023-05-06T21:10:01.457Z,69.27
2023-05-06T21:12:31.613Z,69.05
2023-05-06T21:15:03.773Z,68.90
2023-05-06T21:17:40.068Z,69.11
2023-05-06T21:20:16.989Z,68.80
2023-05-06T21:22:48.708Z,68.83
2023-05-06T21:25:29.174Z,69.49
2023-05-06T21:28:03.469Z,69.80
2023-05-06T21:30:33.641Z,69.41
2023-05-06T21:33:05.209Z,69.03
2023-05-06T21:35:55.993Z,69.13
2023-05-06T21:38:28.056Z,68.54
2023-05-06T21:40:58.124Z,69.43
2023-05-06T21:43:28.188Z,69.35
2023-05-06T21:45:58.558Z,69.34
2023-05-06T21:48:35.361Z,69.59
2023-05-06T21:51:18.858Z,69.48
2023-05-06T21:53:53.833Z,69.65
2023-05-06T21:56:24.489Z,69.52
2023-05-06T21:58:59.474Z,69.27
2023-05-06T22:01:29.735Z,69.58
2023-05-06T22:04:00.619Z,69.61
2023-05-06T22:06:33.727Z,69.19
2023-05-06T22:09:04.602Z,69.57
2023-05-06T22:11:39.006Z,69.79
2023-05-06T22:14:10.444Z,74.84
2023-05-06T22:16:41.713Z,70.52
2023-05-06T22:19:12.481Z,69.75
2023-05-06T22:21:46.495Z,70.18
2023-05-06T22:24:17.924Z,69.97
2023-05-06T22:26:48.231Z,69.47
2023-05-06T22:29:20.563Z,68.90
2023-05-06T22:31:51.373Z,68.69
2023-05-06T22:34:22.594Z,68.95
2023-05-06T22:36:56.993Z,69.59
2023-05-06T22:39:30.581Z,69.96
2023-05-06T22:42:00.702Z,70.53
2023-05-06T22:44:30.926Z,69.91
2023-05-06T22:47:00.974Z,70.29
2023-05-06T22:49:31.077Z,70.36
2023-05-06T22:52:03.787Z,70.08
2023-05-06T22:54:33.862Z,69.65
2023-05-06T22:57:03.991Z,69.61
2023-05-06T22:59:34.617Z,69.76
2023-05-06T23:02:05.958Z,69.71
2023-05-06T23:04:36.082Z,70.47
2023-05-06T23:07:09.503Z,70.03
2023-05-06T23:09:39.647Z,69.28
2023-05-06T23:12:10.162Z,69.40
2023-05-06T23:14:40.347Z,69.68
2023-05-06T23:17:12.905Z,70.18
2023-05-06T23:19:44.120Z,70.14
2023-05-06T23:22:17.199Z,70.07
2023-05-06T23:24:47.725Z,69.72
2023-05-06T23:27:18.731Z,69.30
2023-05-06T23:29:52.632Z,69.71
2023-05-06T23:32:22.594Z,70.32
2023-05-06T23:34:54.740Z,70.10
2023-05-06T23:37:27.812Z,69.92
2023-05-06T23:40:02.134Z,69.94
2023-05-06T23:42:33.599Z,69.73
2023-05-06T23:45:03.516Z,69.57
2023-05-06T23:47:35.014Z,69.95
2023-05-06T23:50:05.124Z,69.92
2023-05-06T23:52:41.282Z,70.52
2023-05-06T23:55:12.588Z,70.16
2023-05-06T23:57:42.841Z,70.08
